sensor_id;sensor_type;location;lat;lon;timestamp;pressure;altitude;pressure_sealevel;temperature;humidity
58785;BME280;44557;51.862;19.378;2023-03-31T00:00:28;98177.98;;;10.82;86.95
58785;BME280;44557;51.862;19.378;2023-03-31T00:02:45;98174.63;;;10.72;87.27
58785;BME280;44557;51.862;19.378;2023-03-31T00:04:46;98172.83;;;10.79;87.13
58785;BME280;44557;51.862;19.378;2023-03-31T00:06:52;98175.24;;;10.91;86.68
58785;BME280;44557;51.862;19.378;2023-03-31T00:08:54;98182.25;;;10.91;86.38
58785;BME280;44557;51.862;19.378;2023-03-31T00:10:58;98181.34;;;11.02;86.29
58785;BME280;44557;51.862;19.378;2023-03-31T00:13:02;98183.53;;;11.00;86.43
58785;BME280;44557;51.862;19.378;2023-03-31T00:15:03;98189.34;;;10.98;86.31
58785;BME280;44557;51.862;19.378;2023-03-31T00:17:04;98190.21;;;10.77;87.29
58785;BME280;44557;51.862;19.378;2023-03-31T00:19:05;98192.52;;;10.74;88.13
58785;BME280;44557;51.862;19.378;2023-03-31T00:21:11;98193.16;;;10.87;87.47
58785;BME280;44557;51.862;19.378;2023-03-31T00:23:14;98193.86;;;10.86;87.83
58785;BME280;44557;51.862;19.378;2023-03-31T00:25:15;98190.59;;;10.97;87.21
58785;BME280;44557;51.862;19.378;2023-03-31T00:27:16;98190.72;;;10.95;87.18
58785;BME280;44557;51.862;19.378;2023-03-31T00:29:17;98192.37;;;10.73;88.22
58785;BME280;44557;51.862;19.378;2023-03-31T00:31:19;98188.30;;;10.77;88.45
58785;BME280;44557;51.862;19.378;2023-03-31T00:33:20;98182.02;;;10.90;87.80
58785;BME280;44557;51.862;19.378;2023-03-31T00:35:21;98187.28;;;10.90;88.05
58785;BME280;44557;51.862;19.378;2023-03-31T00:37:22;98178.77;;;10.80;88.14
58785;BME280;44557;51.862;19.378;2023-03-31T00:39:24;98174.99;;;10.82;88.26
58785;BME280;44557;51.862;19.378;2023-03-31T00:41:26;98175.80;;;10.64;89.09
58785;BME280;44557;51.862;19.378;2023-03-31T00:43:37;98171.28;;;10.68;89.19
58785;BME280;44557;51.862;19.378;2023-03-31T00:45:38;98170.10;;;10.81;88.64
58785;BME280;44557;51.862;19.378;2023-03-31T00:47:45;98169.83;;;10.71;88.96
58785;BME280;44557;51.862;19.378;2023-03-31T00:49:49;98172.88;;;10.76;88.59
58785;BME280;44557;51.862;19.378;2023-03-31T00:54:16;98171.48;;;10.63;89.52
58785;BME280;44557;51.862;19.378;2023-03-31T00:56:19;98169.40;;;10.89;88.71
58785;BME280;44557;51.862;19.378;2023-03-31T00:58:22;98170.82;;;10.90;88.21
58785;BME280;44557;51.862;19.378;2023-03-31T01:00:31;98167.66;;;10.75;89.01
58785;BME280;44557;51.862;19.378;2023-03-31T01:02:33;98170.53;;;10.71;89.38
58785;BME280;44557;51.862;19.378;2023-03-31T01:04:38;98171.25;;;10.72;89.39
58785;BME280;44557;51.862;19.378;2023-03-31T01:06:58;98172.05;;;10.72;89.57
58785;BME280;44557;51.862;19.378;2023-03-31T01:09:02;98170.27;;;10.70;89.33
58785;BME280;44557;51.862;19.378;2023-03-31T01:11:09;98171.55;;;10.70;89.56
58785;BME280;44557;51.862;19.378;2023-03-31T01:13:13;98167.10;;;10.60;90.06
58785;BME280;44557;51.862;19.378;2023-03-31T01:15:15;98170.19;;;10.49;90.71
58785;BME280;44557;51.862;19.378;2023-03-31T01:17:19;98168.35;;;10.66;90.22
58785;BME280;44557;51.862;19.378;2023-03-31T01:19:32;98166.39;;;10.67;89.83
58785;BME280;44557;51.862;19.378;2023-03-31T01:29:22;98174.81;;;10.55;90.71
58785;BME280;44557;51.862;19.378;2023-03-31T01:41:40;98176.54;;;10.42;91.06
58785;BME280;44557;51.862;19.378;2023-03-31T01:43:55;98180.14;;;10.34;91.58
58785;BME280;44557;51.862;19.378;2023-03-31T01:46:31;98177.64;;;10.29;91.69
58785;BME280;44557;51.862;19.378;2023-03-31T01:49:18;98185.79;;;10.39;91.48
58785;BME280;44557;51.862;19.378;2023-03-31T01:51:28;98182.23;;;10.26;91.77
58785;BME280;44557;51.862;19.378;2023-03-31T01:56:08;98175.66;;;10.22;92.09
58785;BME280;44557;51.862;19.378;2023-03-31T01:58:58;98176.19;;;10.10;92.54
58785;BME280;44557;51.862;19.378;2023-03-31T02:00:42;98175.55;;;10.15;92.54
58785;BME280;44557;51.862;19.378;2023-03-31T02:02:53;98178.40;;;10.21;92.23
58785;BME280;44557;51.862;19.378;2023-03-31T02:05:00;98176.89;;;10.00;92.84
58785;BME280;44557;51.862;19.378;2023-03-31T02:07:10;98177.56;;;10.18;92.27
58785;BME280;44557;51.862;19.378;2023-03-31T02:09:15;98178.27;;;10.18;92.17
58785;BME280;44557;51.862;19.378;2023-03-31T02:11:18;98180.25;;;10.04;92.83
58785;BME280;44557;51.862;19.378;2023-03-31T02:13:21;98180.61;;;10.11;92.81
58785;BME280;44557;51.862;19.378;2023-03-31T02:15:27;98177.88;;;10.09;92.80
58785;BME280;44557;51.862;19.378;2023-03-31T02:17:29;98175.10;;;10.16;92.17
58785;BME280;44557;51.862;19.378;2023-03-31T02:19:39;98175.27;;;9.97;93.53
58785;BME280;44557;51.862;19.378;2023-03-31T02:21:41;98176.59;;;10.06;93.28
58785;BME280;44557;51.862;19.378;2023-03-31T02:23:43;98171.78;;;10.10;93.36
58785;BME280;44557;51.862;19.378;2023-03-31T02:25:50;98160.80;;;10.16;92.71
58785;BME280;44557;51.862;19.378;2023-03-31T02:27:59;98163.04;;;10.25;92.08
58785;BME280;44557;51.862;19.378;2023-03-31T02:30:03;98161.86;;;10.19;92.23
58785;BME280;44557;51.862;19.378;2023-03-31T02:32:19;98163.13;;;10.05;93.19
58785;BME280;44557;51.862;19.378;2023-03-31T02:34:22;98164.27;;;10.17;92.82
58785;BME280;44557;51.862;19.378;2023-03-31T02:36:23;98161.59;;;10.07;93.24
58785;BME280;44557;51.862;19.378;2023-03-31T02:38:25;98162.34;;;10.20;92.46
58785;BME280;44557;51.862;19.378;2023-03-31T02:40:26;98166.60;;;10.10;92.95
58785;BME280;44557;51.862;19.378;2023-03-31T02:42:28;98162.91;;;10.33;92.04
58785;BME280;44557;51.862;19.378;2023-03-31T02:44:28;98161.05;;;10.18;92.55
58785;BME280;44557;51.862;19.378;2023-03-31T02:46:30;98164.59;;;10.13;93.13
58785;BME280;44557;51.862;19.378;2023-03-31T02:48:54;98153.33;;;10.17;92.67
58785;BME280;44557;51.862;19.378;2023-03-31T02:54:11;98153.29;;;10.31;92.74
58785;BME280;44557;51.862;19.378;2023-03-31T02:58:32;98156.98;;;10.08;93.64
58785;BME280;44557;51.862;19.378;2023-03-31T03:03:18;98165.88;;;9.99;93.62
58785;BME280;44557;51.862;19.378;2023-03-31T03:05:52;98155.88;;;10.03;93.83
58785;BME280;44557;51.862;19.378;2023-03-31T03:08:22;98155.27;;;9.94;94.10
58785;BME280;44557;51.862;19.378;2023-03-31T03:10:36;98151.64;;;9.99;93.96
58785;BME280;44557;51.862;19.378;2023-03-31T03:12:47;98153.66;;;9.91;94.32
58785;BME280;44557;51.862;19.378;2023-03-31T03:15:05;98155.19;;;10.05;93.72
58785;BME280;44557;51.862;19.378;2023-03-31T03:17:20;98160.30;;;9.89;94.00
58785;BME280;44557;51.862;19.378;2023-03-31T03:19:23;98157.11;;;9.80;94.61
58785;BME280;44557;51.862;19.378;2023-03-31T03:21:25;98156.80;;;9.92;94.58
58785;BME280;44557;51.862;19.378;2023-03-31T03:23:26;98162.50;;;9.94;93.50
58785;BME280;44557;51.862;19.378;2023-03-31T03:25:27;98161.20;;;9.81;94.37
58785;BME280;44557;51.862;19.378;2023-03-31T03:27:30;98167.53;;;9.78;94.83
58785;BME280;44557;51.862;19.378;2023-03-31T03:29:30;98166.60;;;9.84;94.43
58785;BME280;44557;51.862;19.378;2023-03-31T03:31:32;98163.61;;;10.01;93.79
58785;BME280;44557;51.862;19.378;2023-03-31T03:33:33;98164.87;;;9.79;94.08
58785;BME280;44557;51.862;19.378;2023-03-31T03:35:34;98166.34;;;9.93;93.78
58785;BME280;44557;51.862;19.378;2023-03-31T03:37:35;98161.60;;;9.97;93.52
58785;BME280;44557;51.862;19.378;2023-03-31T03:39:37;98160.90;;;9.72;94.56
58785;BME280;44557;51.862;19.378;2023-03-31T03:41:38;98161.13;;;9.92;93.96
58785;BME280;44557;51.862;19.378;2023-03-31T03:43:40;98164.39;;;9.78;94.03
58785;BME280;44557;51.862;19.378;2023-03-31T03:45:41;98165.57;;;9.68;94.64
58785;BME280;44557;51.862;19.378;2023-03-31T03:47:42;98170.52;;;9.68;94.51
58785;BME280;44557;51.862;19.378;2023-03-31T03:49:43;98169.34;;;9.73;94.52
58785;BME280;44557;51.862;19.378;2023-03-31T03:51:45;98173.26;;;9.63;94.76
58785;BME280;44557;51.862;19.378;2023-03-31T03:53:46;98168.55;;;9.69;94.48
58785;BME280;44557;51.862;19.378;2023-03-31T03:55:47;98171.83;;;9.57;94.98
58785;BME280;44557;51.862;19.378;2023-03-31T03:57:49;98174.12;;;9.57;95.22
58785;BME280;44557;51.862;19.378;2023-03-31T03:59:50;98174.63;;;9.60;94.76
58785;BME280;44557;51.862;19.378;2023-03-31T04:01:51;98174.15;;;9.64;94.74
58785;BME280;44557;51.862;19.378;2023-03-31T04:03:52;98167.10;;;9.66;94.42
58785;BME280;44557;51.862;19.378;2023-03-31T04:05:53;98170.80;;;9.66;94.32
58785;BME280;44557;51.862;19.378;2023-03-31T04:07:54;98172.54;;;9.67;94.26
58785;BME280;44557;51.862;19.378;2023-03-31T04:09:54;98170.57;;;9.57;94.38
58785;BME280;44557;51.862;19.378;2023-03-31T04:11:55;98171.05;;;9.62;93.96
58785;BME280;44557;51.862;19.378;2023-03-31T04:13:56;98168.48;;;9.49;94.53
58785;BME280;44557;51.862;19.378;2023-03-31T04:15:57;98168.34;;;9.45;94.92
58785;BME280;44557;51.862;19.378;2023-03-31T04:17:58;98168.80;;;9.30;95.39
58785;BME280;44557;51.862;19.378;2023-03-31T04:20:00;98170.11;;;9.52;94.67
58785;BME280;44557;51.862;19.378;2023-03-31T04:22:03;98165.90;;;9.44;94.51
58785;BME280;44557;51.862;19.378;2023-03-31T04:24:04;98161.94;;;9.42;94.53
58785;BME280;44557;51.862;19.378;2023-03-31T04:26:06;98152.61;;;9.25;95.07
58785;BME280;44557;51.862;19.378;2023-03-31T04:28:08;98159.55;;;9.27;95.36
58785;BME280;44557;51.862;19.378;2023-03-31T04:30:13;98154.95;;;9.37;94.73
58785;BME280;44557;51.862;19.378;2023-03-31T04:32:22;98152.16;;;9.31;94.78
58785;BME280;44557;51.862;19.378;2023-03-31T04:34:25;98148.64;;;9.36;94.74
58785;BME280;44557;51.862;19.378;2023-03-31T04:36:34;98144.82;;;9.48;93.91
58785;BME280;44557;51.862;19.378;2023-03-31T04:38:35;98140.30;;;9.55;93.38
58785;BME280;44557;51.862;19.378;2023-03-31T04:40:36;98142.86;;;9.19;94.71
58785;BME280;44557;51.862;19.378;2023-03-31T04:42:37;98139.38;;;9.13;95.32
58785;BME280;44557;51.862;19.378;2023-03-31T04:44:38;98137.81;;;9.09;95.44
58785;BME280;44557;51.862;19.378;2023-03-31T04:46:38;98139.44;;;9.17;95.52
58785;BME280;44557;51.862;19.378;2023-03-31T04:48:40;98139.72;;;9.29;94.53
58785;BME280;44557;51.862;19.378;2023-03-31T04:50:41;98134.27;;;9.13;95.28
58785;BME280;44557;51.862;19.378;2023-03-31T04:52:45;98129.16;;;9.21;94.95
58785;BME280;44557;51.862;19.378;2023-03-31T04:54:47;98131.45;;;9.37;94.22
58785;BME280;44557;51.862;19.378;2023-03-31T04:56:48;98132.33;;;9.32;94.28
58785;BME280;44557;51.862;19.378;2023-03-31T04:58:48;98131.92;;;9.37;93.91
58785;BME280;44557;51.862;19.378;2023-03-31T05:00:51;98132.75;;;9.44;93.25
58785;BME280;44557;51.862;19.378;2023-03-31T05:02:53;98125.82;;;9.14;94.89
58785;BME280;44557;51.862;19.378;2023-03-31T05:04:54;98128.16;;;9.28;94.59
58785;BME280;44557;51.862;19.378;2023-03-31T05:06:55;98126.64;;;9.30;94.17
58785;BME280;44557;51.862;19.378;2023-03-31T05:08:56;98122.76;;;9.10;95.04
58785;BME280;44557;51.862;19.378;2023-03-31T05:10:59;98122.28;;;9.28;94.26
58785;BME280;44557;51.862;19.378;2023-03-31T05:13:02;98123.64;;;9.25;94.50
58785;BME280;44557;51.862;19.378;2023-03-31T05:15:05;98123.79;;;9.20;94.74
58785;BME280;44557;51.862;19.378;2023-03-31T05:17:09;98119.41;;;9.30;94.17
58785;BME280;44557;51.862;19.378;2023-03-31T05:19:10;98116.76;;;9.22;94.29
58785;BME280;44557;51.862;19.378;2023-03-31T05:21:19;98114.27;;;9.28;94.38
58785;BME280;44557;51.862;19.378;2023-03-31T05:23:21;98110.52;;;9.34;93.83
58785;BME280;44557;51.862;19.378;2023-03-31T05:25:22;98112.20;;;9.26;94.17
58785;BME280;44557;51.862;19.378;2023-03-31T05:27:23;98112.56;;;9.38;93.41
58785;BME280;44557;51.862;19.378;2023-03-31T05:29:24;98110.30;;;9.35;93.44
58785;BME280;44557;51.862;19.378;2023-03-31T05:31:25;98107.10;;;9.26;93.83
58785;BME280;44557;51.862;19.378;2023-03-31T05:33:27;98107.66;;;9.37;93.69
58785;BME280;44557;51.862;19.378;2023-03-31T05:35:29;98107.21;;;9.38;93.55
58785;BME280;44557;51.862;19.378;2023-03-31T05:37:30;98106.55;;;9.51;92.87
58785;BME280;44557;51.862;19.378;2023-03-31T05:39:31;98113.18;;;9.24;94.16
58785;BME280;44557;51.862;19.378;2023-03-31T05:41:33;98107.23;;;9.29;94.00
58785;BME280;44557;51.862;19.378;2023-03-31T05:43:35;98110.42;;;9.32;93.92
58785;BME280;44557;51.862;19.378;2023-03-31T05:45:36;98110.58;;;9.42;93.65
58785;BME280;44557;51.862;19.378;2023-03-31T05:47:36;98112.64;;;9.34;93.81
58785;BME280;44557;51.862;19.378;2023-03-31T05:49:37;98115.30;;;9.33;93.70
58785;BME280;44557;51.862;19.378;2023-03-31T05:51:38;98115.36;;;9.32;93.99
58785;BME280;44557;51.862;19.378;2023-03-31T05:53:39;98110.77;;;9.39;93.36
58785;BME280;44557;51.862;19.378;2023-03-31T05:55:42;98111.23;;;9.39;93.47
58785;BME280;44557;51.862;19.378;2023-03-31T05:57:42;98105.62;;;9.41;93.19
58785;BME280;44557;51.862;19.378;2023-03-31T05:59:43;98100.55;;;9.54;92.75
58785;BME280;44557;51.862;19.378;2023-03-31T06:01:44;98096.73;;;9.57;92.28
58785;BME280;44557;51.862;19.378;2023-03-31T06:03:46;98097.08;;;9.33;93.27
58785;BME280;44557;51.862;19.378;2023-03-31T06:05:47;98097.32;;;9.38;93.02
58785;BME280;44557;51.862;19.378;2023-03-31T06:07:48;98097.55;;;9.43;92.87
58785;BME280;44557;51.862;19.378;2023-03-31T06:09:49;98101.66;;;9.45;92.94
58785;BME280;44557;51.862;19.378;2023-03-31T06:11:51;98099.02;;;9.46;92.86
58785;BME280;44557;51.862;19.378;2023-03-31T06:13:52;98091.90;;;9.49;92.74
58785;BME280;44557;51.862;19.378;2023-03-31T06:15:57;98087.51;;;9.54;92.46
58785;BME280;44557;51.862;19.378;2023-03-31T06:17:58;98090.91;;;9.45;93.03
58785;BME280;44557;51.862;19.378;2023-03-31T06:24:31;98093.42;;;9.45;92.25
58785;BME280;44557;51.862;19.378;2023-03-31T06:28:56;98093.52;;;9.52;91.69
58785;BME280;44557;51.862;19.378;2023-03-31T06:33:02;98091.50;;;9.48;91.25
58785;BME280;44557;51.862;19.378;2023-03-31T06:35:05;98093.08;;;9.54;90.79
58785;BME280;44557;51.862;19.378;2023-03-31T06:37:08;98086.45;;;9.62;90.58
58785;BME280;44557;51.862;19.378;2023-03-31T06:39:08;98088.85;;;9.55;90.60
58785;BME280;44557;51.862;19.378;2023-03-31T06:41:13;98084.27;;;9.53;90.83
58785;BME280;44557;51.862;19.378;2023-03-31T06:43:15;98088.81;;;9.74;89.84
58785;BME280;44557;51.862;19.378;2023-03-31T06:45:17;98086.83;;;9.62;89.94
58785;BME280;44557;51.862;19.378;2023-03-31T06:47:18;98090.30;;;9.67;89.76
58785;BME280;44557;51.862;19.378;2023-03-31T06:49:19;98088.20;;;9.69;90.02
58785;BME280;44557;51.862;19.378;2023-03-31T06:51:21;98084.74;;;9.92;88.94
58785;BME280;44557;51.862;19.378;2023-03-31T06:53:26;98084.84;;;9.94;88.30
58785;BME280;44557;51.862;19.378;2023-03-31T06:55:28;98082.95;;;9.87;88.44
58785;BME280;44557;51.862;19.378;2023-03-31T06:57:29;98081.45;;;9.88;88.62
58785;BME280;44557;51.862;19.378;2023-03-31T06:59:33;98084.52;;;9.80;88.73
58785;BME280;44557;51.862;19.378;2023-03-31T07:01:42;98084.73;;;9.97;88.21
58785;BME280;44557;51.862;19.378;2023-03-31T07:03:43;98085.89;;;9.85;88.42
58785;BME280;44557;51.862;19.378;2023-03-31T07:05:54;98088.31;;;9.89;88.21
58785;BME280;44557;51.862;19.378;2023-03-31T07:07:56;98086.27;;;9.95;88.25
58785;BME280;44557;51.862;19.378;2023-03-31T07:09:57;98086.87;;;9.97;88.02
58785;BME280;44557;51.862;19.378;2023-03-31T07:11:58;98083.77;;;9.89;88.42
58785;BME280;44557;51.862;19.378;2023-03-31T07:13:59;98083.60;;;10.11;87.66
58785;BME280;44557;51.862;19.378;2023-03-31T07:16:00;98081.75;;;10.27;87.04
58785;BME280;44557;51.862;19.378;2023-03-31T07:18:01;98080.04;;;10.16;86.58
58785;BME280;44557;51.862;19.378;2023-03-31T07:20:03;98080.66;;;10.10;87.17
58785;BME280;44557;51.862;19.378;2023-03-31T07:22:04;98079.81;;;10.11;87.10
58785;BME280;44557;51.862;19.378;2023-03-31T07:24:05;98079.81;;;10.30;86.34
58785;BME280;44557;51.862;19.378;2023-03-31T07:26:06;98079.27;;;10.36;86.00
58785;BME280;44557;51.862;19.378;2023-03-31T07:28:08;98076.02;;;10.21;85.93
58785;BME280;44557;51.862;19.378;2023-03-31T07:30:17;98079.72;;;10.28;85.80
58785;BME280;44557;51.862;19.378;2023-03-31T07:32:18;98075.02;;;10.43;85.50
58785;BME280;44557;51.862;19.378;2023-03-31T07:34:21;98070.18;;;10.40;85.52
58785;BME280;44557;51.862;19.378;2023-03-31T07:36:22;98070.17;;;10.54;85.15
58785;BME280;44557;51.862;19.378;2023-03-31T07:38:23;98064.29;;;10.55;85.23
58785;BME280;44557;51.862;19.378;2023-03-31T07:40:26;98056.70;;;10.75;84.76
58785;BME280;44557;51.862;19.378;2023-03-31T07:42:27;98055.27;;;10.66;84.77
58785;BME280;44557;51.862;19.378;2023-03-31T07:44:28;98053.93;;;10.64;84.69
58785;BME280;44557;51.862;19.378;2023-03-31T07:46:29;98056.99;;;10.57;84.61
58785;BME280;44557;51.862;19.378;2023-03-31T07:48:30;98051.19;;;10.66;84.53
58785;BME280;44557;51.862;19.378;2023-03-31T07:50:31;98050.38;;;10.72;84.25
58785;BME280;44557;51.862;19.378;2023-03-31T07:52:32;98047.05;;;10.70;84.28
58785;BME280;44557;51.862;19.378;2023-03-31T07:54:34;98045.46;;;10.76;84.01
58785;BME280;44557;51.862;19.378;2023-03-31T07:56:35;98043.34;;;10.85;83.71
58785;BME280;44557;51.862;19.378;2023-03-31T07:58:36;98045.23;;;10.59;84.65
58785;BME280;44557;51.862;19.378;2023-03-31T08:00:37;98042.73;;;10.61;84.60
58785;BME280;44557;51.862;19.378;2023-03-31T08:02:39;98039.55;;;10.67;84.79
58785;BME280;44557;51.862;19.378;2023-03-31T08:04:43;98042.27;;;10.71;83.99
58785;BME280;44557;51.862;19.378;2023-03-31T08:06:45;98039.52;;;10.97;82.84
58785;BME280;44557;51.862;19.378;2023-03-31T08:08:46;98038.61;;;11.02;82.98
58785;BME280;44557;51.862;19.378;2023-03-31T08:10:47;98037.62;;;11.27;82.25
58785;BME280;44557;51.862;19.378;2023-03-31T08:12:48;98036.43;;;11.37;82.18
58785;BME280;44557;51.862;19.378;2023-03-31T08:14:49;98036.66;;;11.25;82.17
58785;BME280;44557;51.862;19.378;2023-03-31T08:16:50;98032.52;;;11.54;81.58
58785;BME280;44557;51.862;19.378;2023-03-31T08:18:52;98023.40;;;11.56;81.50
58785;BME280;44557;51.862;19.378;2023-03-31T08:20:53;98024.86;;;11.50;80.95
58785;BME280;44557;51.862;19.378;2023-03-31T08:22:54;98026.11;;;11.37;81.44
58785;BME280;44557;51.862;19.378;2023-03-31T08:24:55;98022.03;;;11.18;81.90
58785;BME280;44557;51.862;19.378;2023-03-31T08:26:56;98020.90;;;11.35;81.73
58785;BME280;44557;51.862;19.378;2023-03-31T08:28:57;98017.70;;;11.41;81.21
58785;BME280;44557;51.862;19.378;2023-03-31T08:31:03;98019.81;;;11.38;81.18
58785;BME280;44557;51.862;19.378;2023-03-31T08:33:05;98013.27;;;11.49;81.29
58785;BME280;44557;51.862;19.378;2023-03-31T08:35:07;98017.77;;;11.76;80.39
58785;BME280;44557;51.862;19.378;2023-03-31T08:37:09;98020.16;;;11.68;80.00
58785;BME280;44557;51.862;19.378;2023-03-31T08:39:10;98015.36;;;11.56;80.51
58785;BME280;44557;51.862;19.378;2023-03-31T08:43:54;98008.42;;;12.03;79.27
58785;BME280;44557;51.862;19.378;2023-03-31T08:45:56;98008.60;;;12.30;78.39
58785;BME280;44557;51.862;19.378;2023-03-31T08:48:05;98001.38;;;12.15;78.61
58785;BME280;44557;51.862;19.378;2023-03-31T08:50:11;97998.84;;;12.11;78.63
58785;BME280;44557;51.862;19.378;2023-03-31T08:52:17;97996.41;;;12.13;78.30
58785;BME280;44557;51.862;19.378;2023-03-31T08:54:30;97993.01;;;12.38;77.34
58785;BME280;44557;51.862;19.378;2023-03-31T08:56:34;97997.55;;;12.34;77.68
58785;BME280;44557;51.862;19.378;2023-03-31T08:58:42;97993.80;;;12.44;77.27
58785;BME280;44557;51.862;19.378;2023-03-31T09:01:05;97993.20;;;12.66;76.94
58785;BME280;44557;51.862;19.378;2023-03-31T09:03:18;97992.84;;;12.41;76.82
58785;BME280;44557;51.862;19.378;2023-03-31T09:12:16;97984.05;;;12.75;76.41
58785;BME280;44557;51.862;19.378;2023-03-31T09:14:26;97984.76;;;12.71;76.44
58785;BME280;44557;51.862;19.378;2023-03-31T09:16:36;97986.56;;;12.58;76.36
58785;BME280;44557;51.862;19.378;2023-03-31T09:18:40;97986.34;;;12.67;76.74
58785;BME280;44557;51.862;19.378;2023-03-31T09:20:50;97980.82;;;12.71;77.12
58785;BME280;44557;51.862;19.378;2023-03-31T09:23:26;97974.35;;;12.85;75.75
58785;BME280;44557;51.862;19.378;2023-03-31T09:25:37;97970.85;;;12.55;76.64
58785;BME280;44557;51.862;19.378;2023-03-31T09:27:40;97964.55;;;12.61;76.55
58785;BME280;44557;51.862;19.378;2023-03-31T09:29:56;97962.66;;;12.77;75.54
58785;BME280;44557;51.862;19.378;2023-03-31T09:32:13;97961.70;;;12.60;75.63
58785;BME280;44557;51.862;19.378;2023-03-31T09:34:27;97964.16;;;12.87;74.92
58785;BME280;44557;51.862;19.378;2023-03-31T09:36:29;97963.21;;;12.79;74.79
58785;BME280;44557;51.862;19.378;2023-03-31T09:38:30;97966.06;;;12.71;75.77
58785;BME280;44557;51.862;19.378;2023-03-31T09:40:31;97963.84;;;12.79;75.70
58785;BME280;44557;51.862;19.378;2023-03-31T09:42:33;97960.77;;;12.74;75.23
58785;BME280;44557;51.862;19.378;2023-03-31T09:44:43;97959.10;;;12.58;75.75
58785;BME280;44557;51.862;19.378;2023-03-31T09:46:44;97957.59;;;12.51;76.08
58785;BME280;44557;51.862;19.378;2023-03-31T09:48:57;97948.20;;;12.57;75.67
58785;BME280;44557;51.862;19.378;2023-03-31T09:51:03;97947.10;;;12.72;75.35
58785;BME280;44557;51.862;19.378;2023-03-31T09:53:13;97942.52;;;12.62;75.99
58785;BME280;44557;51.862;19.378;2023-03-31T09:55:22;97937.85;;;13.17;74.24
58785;BME280;44557;51.862;19.378;2023-03-31T09:57:38;97936.67;;;13.22;74.17
58785;BME280;44557;51.862;19.378;2023-03-31T09:59:39;97934.30;;;12.99;74.59
58785;BME280;44557;51.862;19.378;2023-03-31T10:01:41;97931.08;;;12.99;74.63
58785;BME280;44557;51.862;19.378;2023-03-31T10:03:50;97928.38;;;13.10;74.26
58785;BME280;44557;51.862;19.378;2023-03-31T10:05:54;97921.35;;;13.42;74.94
58785;BME280;44557;51.862;19.378;2023-03-31T10:08:26;97921.78;;;13.31;73.52
58785;BME280;44557;51.862;19.378;2023-03-31T10:10:32;97912.08;;;13.72;72.41
58785;BME280;44557;51.862;19.378;2023-03-31T10:12:34;97907.46;;;13.94;72.24
58785;BME280;44557;51.862;19.378;2023-03-31T10:14:48;97908.61;;;13.82;71.60
58785;BME280;44557;51.862;19.378;2023-03-31T10:16:57;97902.23;;;13.63;71.95
58785;BME280;44557;51.862;19.378;2023-03-31T10:19:32;97899.31;;;13.60;71.56
58785;BME280;44557;51.862;19.378;2023-03-31T10:21:36;97892.84;;;13.76;71.44
58785;BME280;44557;51.862;19.378;2023-03-31T10:23:45;97890.71;;;13.74;71.31
58785;BME280;44557;51.862;19.378;2023-03-31T10:25:46;97883.57;;;13.80;70.98
58785;BME280;44557;51.862;19.378;2023-03-31T10:27:51;97883.70;;;13.85;70.35
58785;BME280;44557;51.862;19.378;2023-03-31T10:30:03;97885.59;;;13.85;70.94
58785;BME280;44557;51.862;19.378;2023-03-31T10:32:23;97887.61;;;14.06;70.34
58785;BME280;44557;51.862;19.378;2023-03-31T10:34:26;97881.06;;;14.79;69.07
58785;BME280;44557;51.862;19.378;2023-03-31T10:36:28;97880.70;;;14.75;67.75
58785;BME280;44557;51.862;19.378;2023-03-31T10:38:33;97875.30;;;14.47;67.77
58785;BME280;44557;51.862;19.378;2023-03-31T10:40:36;97872.00;;;14.35;67.85
58785;BME280;44557;51.862;19.378;2023-03-31T10:42:37;97866.61;;;14.73;67.42
58785;BME280;44557;51.862;19.378;2023-03-31T10:44:38;97862.98;;;15.05;66.46
58785;BME280;44557;51.862;19.378;2023-03-31T10:48:45;97858.20;;;15.57;65.92
58785;BME280;44557;51.862;19.378;2023-03-31T10:50:47;97859.02;;;15.55;65.86
58785;BME280;44557;51.862;19.378;2023-03-31T10:52:48;97859.67;;;15.60;66.28
58785;BME280;44557;51.862;19.378;2023-03-31T10:54:53;97853.84;;;15.64;65.53
58785;BME280;44557;51.862;19.378;2023-03-31T10:56:57;97854.60;;;15.83;63.97
58785;BME280;44557;51.862;19.378;2023-03-31T11:01:29;97852.98;;;15.35;65.54
58785;BME280;44557;51.862;19.378;2023-03-31T11:05:55;97851.45;;;15.30;65.79
58785;BME280;44557;51.862;19.378;2023-03-31T11:15:14;97837.37;;;14.68;67.44
58785;BME280;44557;51.862;19.378;2023-03-31T11:17:40;97831.36;;;14.97;68.46
58785;BME280;44557;51.862;19.378;2023-03-31T11:24:33;97821.80;;;14.55;68.07
58785;BME280;44557;51.862;19.378;2023-03-31T11:29:02;97812.66;;;14.91;66.89
58785;BME280;44557;51.862;19.378;2023-03-31T11:31:25;97812.13;;;14.74;67.18
58785;BME280;44557;51.862;19.378;2023-03-31T11:34:02;97805.77;;;14.75;67.10
58785;BME280;44557;51.862;19.378;2023-03-31T11:45:05;97798.90;;;14.50;67.48
58785;BME280;44557;51.862;19.378;2023-03-31T11:47:16;97801.97;;;14.43;67.31
58785;BME280;44557;51.862;19.378;2023-03-31T11:49:24;97791.35;;;14.43;67.74
58785;BME280;44557;51.862;19.378;2023-03-31T11:51:52;97789.95;;;14.49;67.40
58785;BME280;44557;51.862;19.378;2023-03-31T11:53:57;97785.30;;;14.55;66.65
58785;BME280;44557;51.862;19.378;2023-03-31T11:56:01;97780.62;;;14.57;66.92
58785;BME280;44557;51.862;19.378;2023-03-31T11:58:14;97776.30;;;14.84;66.63
58785;BME280;44557;51.862;19.378;2023-03-31T12:00:19;97771.95;;;14.68;66.24
58785;BME280;44557;51.862;19.378;2023-03-31T12:02:38;97767.86;;;14.73;66.87
58785;BME280;44557;51.862;19.378;2023-03-31T12:04:51;97765.02;;;14.73;65.98
58785;BME280;44557;51.862;19.378;2023-03-31T12:06:58;97758.94;;;14.63;65.60
58785;BME280;44557;51.862;19.378;2023-03-31T12:09:20;97756.94;;;14.41;65.76
58785;BME280;44557;51.862;19.378;2023-03-31T12:11:32;97756.63;;;14.71;65.53
58785;BME280;44557;51.862;19.378;2023-03-31T12:16:18;97754.79;;;14.66;65.22
58785;BME280;44557;51.862;19.378;2023-03-31T12:18:23;97746.45;;;14.76;64.99